Terminal Aerodrome Forecast
Issued by NWS

Home | Current Version | Previous Version | Text Only | Print | Product List | Glossary On
Versions: 1 2 3 4 5 6 7 8 9 10 11 12 13 14 15 16 17 18 19
418
FTUS45 KTFX 141739
TAFCTB
TAF
KCTB 141739Z 1418/1518 26025G38KT P6SM BKN150
     FM150600 26015G30KT P6SM OVC090
      TEMPO 1514/1518 -RA OVC025=

USA.gov is the U.S. government's official web portal to all federal, state and local government web resources and services.